Time;durP1;ratioP1;P1;durP2;ratioP2;P2;SDS_P1;SDS_P2;PMS_P1;PMS_P2;Temp;Humidity;BMP_temperature;BMP_pressure;BME280_temperature;BME280_humidity;BME280_pressure;Samples;Min_cycle;Max_cycle;Signal;HPM_P1;HPM_P2
2022/11/04 00:02:00;;;;;;;7.18;1.90;;;;;;;;;;5164440;27;20271;-68
2022/11/04 00:04:27;;;;;;;6.57;1.83;;;;;;;;;;5154384;27;20644;-68
2022/11/04 00:06:54;;;;;;;4.25;1.40;;;;;;;;;;5156688;27;20047;-67
2022/11/04 00:09:30;;;;;;;4.65;1.33;;;;;;;;;;5159320;27;20050;-68
2022/11/04 00:14:42;;;;;;;6.22;2.28;;;;;;;;;;5158509;27;20057;-67
2022/11/04 00:17:22;;;;;;;4.47;1.63;;;;;;;;;;5150753;27;20057;-66
2022/11/04 00:28:42;;;;;;;6.50;1.57;;;;;;;;;;5090613;28;20489;-67
2022/11/04 00:33:54;;;;;;;3.20;1.42;;;;;;;;;;5088928;28;20056;-68
2022/11/04 00:36:22;;;;;;;5.70;1.40;;;;;;;;;;5096837;28;20530;-69
2022/11/04 00:38:48;;;;;;;5.47;1.27;;;;;;;;;;5083619;28;20052;-68
2022/11/04 00:41:27;;;;;;;2.45;1.02;;;;;;;;;;5080993;28;20544;-67
2022/11/04 00:43:54;;;;;;;3.70;1.02;;;;;;;;;;5079164;28;20095;-67
2022/11/04 00:46:21;;;;;;;2.55;1.05;;;;;;;;;;5087787;28;20063;-67
2022/11/04 00:48:47;;;;;;;6.68;1.25;;;;;;;;;;5090668;28;20426;-66
2022/11/04 00:51:14;;;;;;;1.35;0.90;;;;;;;;;;5081057;28;20053;-67
2022/11/04 00:53:40;;;;;;;2.33;1.10;;;;;;;;;;5106141;27;20585;-66
2022/11/04 00:56:07;;;;;;;2.67;1.45;;;;;;;;;;5149061;27;20086;-68
2022/11/04 00:58:33;;;;;;;3.08;1.88;;;;;;;;;;5148961;27;20391;-67
2022/11/04 01:00:59;;;;;;;5.47;1.70;;;;;;;;;;5156221;27;20148;-67
2022/11/04 01:03:26;;;;;;;2.10;1.73;;;;;;;;;;5162267;27;20130;-67
2022/11/04 01:05:52;;;;;;;9.65;2.15;;;;;;;;;;5150838;27;20505;-66
2022/11/04 01:08:18;;;;;;;6.93;2.28;;;;;;;;;;5154486;27;20058;-67
2022/11/04 01:10:44;;;;;;;6.07;2.72;;;;;;;;;;5147002;27;20043;-68
2022/11/04 01:13:11;;;;;;;7.28;2.30;;;;;;;;;;5144656;27;20051;-66
2022/11/04 01:15:37;;;;;;;9.27;2.45;;;;;;;;;;5143999;27;20047;-66
2022/11/04 01:18:04;;;;;;;5.35;2.67;;;;;;;;;;5149196;27;20050;-67
2022/11/04 01:20:32;;;;;;;6.57;2.85;;;;;;;;;;5150605;27;20553;-67
2022/11/04 01:22:58;;;;;;;7.28;2.95;;;;;;;;;;5154366;27;20047;-66
2022/11/04 01:25:24;;;;;;;4.35;1.77;;;;;;;;;;5155924;27;20611;-66
2022/11/04 01:27:51;;;;;;;4.22;2.38;;;;;;;;;;5161732;27;20492;-69
2022/11/04 01:30:17;;;;;;;9.15;2.75;;;;;;;;;;5159863;27;20050;-68
2022/11/04 01:32:43;;;;;;;3.90;2.40;;;;;;;;;;5155532;27;20051;-68
2022/11/04 01:35:10;;;;;;;5.70;2.38;;;;;;;;;;5157298;27;20043;-66
2022/11/04 01:37:36;;;;;;;3.60;2.15;;;;;;;;;;5159158;27;20047;-66
2022/11/04 01:40:02;;;;;;;7.13;3.13;;;;;;;;;;5160362;27;20050;-68
2022/11/04 01:42:29;;;;;;;3.90;2.25;;;;;;;;;;5156298;27;20055;-67
2022/11/04 01:44:57;;;;;;;9.32;2.13;;;;;;;;;;5156968;27;20043;-68
2022/11/04 01:47:29;;;;;;;6.68;3.05;;;;;;;;;;5149006;27;20043;-66
2022/11/04 01:50:22;;;;;;;3.00;1.70;;;;;;;;;;5159536;27;20100;-68
2022/11/04 01:53:03;;;;;;;5.10;1.85;;;;;;;;;;5154129;27;20054;-67
2022/11/04 01:55:34;;;;;;;4.85;1.63;;;;;;;;;;5157255;27;20050;-67
2022/11/04 01:58:06;;;;;;;5.53;1.48;;;;;;;;;;5164154;27;20839;-67
2022/11/04 02:00:32;;;;;;;5.35;1.83;;;;;;;;;;5157246;27;20050;-67
2022/11/04 02:03:05;;;;;;;1.23;1.13;;;;;;;;;;5153946;27;20054;-68
2022/11/04 02:05:32;;;;;;;4.50;1.48;;;;;;;;;;5148366;27;20047;-67
2022/11/04 02:08:01;;;;;;;4.40;1.58;;;;;;;;;;5161398;27;20047;-69
2022/11/04 02:10:28;;;;;;;2.67;1.30;;;;;;;;;;5155298;27;20054;-67
2022/11/04 02:12:56;;;;;;;2.20;1.02;;;;;;;;;;5159814;27;20053;-67
2022/11/04 02:15:38;;;;;;;1.92;1.00;;;;;;;;;;5146766;27;20878;-67
2022/11/04 02:18:14;;;;;;;3.05;1.02;;;;;;;;;;5153481;27;20046;-66
2022/11/04 02:20:41;;;;;;;4.22;0.90;;;;;;;;;;5149047;27;20044;-67
2022/11/04 02:23:26;;;;;;;2.53;1.17;;;;;;;;;;5157941;27;20581;-67
2022/11/04 02:26:11;;;;;;;6.40;1.77;;;;;;;;;;5149063;27;20062;-68
2022/11/04 02:28:37;;;;;;;2.77;1.00;;;;;;;;;;5147891;27;20049;-68
2022/11/04 02:31:21;;;;;;;1.92;0.80;;;;;;;;;;5159014;27;20869;-67
2022/11/04 02:34:10;;;;;;;6.47;0.80;;;;;;;;;;5148641;27;20055;-67
2022/11/04 02:36:42;;;;;;;3.45;0.77;;;;;;;;;;5164818;27;20047;-67
2022/11/04 02:39:21;;;;;;;2.63;0.82;;;;;;;;;;5161588;27;20051;-67
2022/11/04 02:41:53;;;;;;;1.33;0.60;;;;;;;;;;5161813;27;20054;-67
2022/11/04 02:44:26;;;;;;;1.38;0.63;;;;;;;;;;5154459;27;20047;-67
2022/11/04 02:46:59;;;;;;;1.77;0.73;;;;;;;;;;5165792;27;20087;-66
2022/11/04 02:49:27;;;;;;;2.55;0.68;;;;;;;;;;5153193;27;20512;-67
2022/11/04 02:51:57;;;;;;;1.08;0.65;;;;;;;;;;5150479;27;20050;-67
2022/11/04 02:54:39;;;;;;;3.80;1.00;;;;;;;;;;5140361;27;20047;-67
2022/11/04 02:57:07;;;;;;;2.22;0.50;;;;;;;;;;5151520;27;20054;-67
2022/11/04 02:59:35;;;;;;;2.78;0.82;;;;;;;;;;5152360;27;20071;-68
2022/11/04 03:02:11;;;;;;;3.38;0.85;;;;;;;;;;5151888;27;20047;-67
2022/11/04 03:04:40;;;;;;;2.25;0.90;;;;;;;;;;5165095;27;20039;-68
2022/11/04 03:07:08;;;;;;;1.15;1.05;;;;;;;;;;5165608;27;20107;-68
2022/11/04 03:09:41;;;;;;;2.30;0.90;;;;;;;;;;5150697;27;20051;-69
2022/11/04 03:12:10;;;;;;;4.55;1.75;;;;;;;;;;5161892;27;20051;-69
2022/11/04 03:14:39;;;;;;;2.75;1.08;;;;;;;;;;5149018;27;20061;-68
2022/11/04 03:17:12;;;;;;;4.15;1.30;;;;;;;;;;5154495;27;20054;-68
2022/11/04 03:19:43;;;;;;;2.67;1.13;;;;;;;;;;5159879;27;20055;-68
2022/11/04 03:22:11;;;;;;;2.38;1.50;;;;;;;;;;5165609;27;20047;-68
2022/11/04 03:24:38;;;;;;;3.83;1.10;;;;;;;;;;5165886;27;20047;-67
2022/11/04 03:27:12;;;;;;;1.48;1.38;;;;;;;;;;5161735;27;20095;-67
2022/11/04 03:29:45;;;;;;;3.28;1.60;;;;;;;;;;5150664;27;20039;-67
2022/11/04 03:32:22;;;;;;;1.50;1.30;;;;;;;;;;5154903;27;20050;-67
2022/11/04 03:34:49;;;;;;;2.72;1.63;;;;;;;;;;5163477;27;20050;-67
2022/11/04 03:37:16;;;;;;;2.05;1.15;;;;;;;;;;5146391;27;20047;-67
2022/11/04 03:39:42;;;;;;;2.58;1.80;;;;;;;;;;5159404;27;20051;-68
2022/11/04 03:42:19;;;;;;;2.45;1.10;;;;;;;;;;5156342;27;20055;-67
2022/11/04 03:44:50;;;;;;;1.70;1.50;;;;;;;;;;5164354;27;20061;-68
2022/11/04 03:47:19;;;;;;;1.83;1.45;;;;;;;;;;5156586;27;20057;-67
2022/11/04 03:49:47;;;;;;;2.72;1.67;;;;;;;;;;5166328;27;20057;-68
2022/11/04 03:52:13;;;;;;;3.85;1.70;;;;;;;;;;5150441;27;20055;-67
2022/11/04 03:54:40;;;;;;;3.60;1.52;;;;;;;;;;5150389;27;20055;-68
2022/11/04 03:57:19;;;;;;;2.10;1.65;;;;;;;;;;5155978;27;20535;-67
2022/11/04 04:00:05;;;;;;;1.65;1.55;;;;;;;;;;5156588;27;20061;-67
2022/11/04 04:02:37;;;;;;;3.70;1.90;;;;;;;;;;5140350;27;20047;-68
2022/11/04 04:05:08;;;;;;;6.05;2.28;;;;;;;;;;5153178;27;20044;-67
2022/11/04 04:07:55;;;;;;;5.50;2.72;;;;;;;;;;5148880;27;20043;-70
2022/11/04 04:10:39;;;;;;;5.40;2.25;;;;;;;;;;5158158;27;20053;-68
2022/11/04 04:13:13;;;;;;;6.93;2.20;;;;;;;;;;5128878;27;20050;-68
2022/11/04 04:15:46;;;;;;;4.30;2.10;;;;;;;;;;5160671;27;20055;-67
2022/11/04 04:18:15;;;;;;;5.75;2.63;;;;;;;;;;5145372;27;20503;-68
2022/11/04 04:20:46;;;;;;;3.70;2.22;;;;;;;;;;5145170;27;20062;-67
2022/11/04 04:28:47;;;;;;;8.00;2.70;;;;;;;;;;5156947;27;20047;-69
2022/11/04 04:31:48;;;;;;;5.47;2.90;;;;;;;;;;5160148;27;20119;-67
2022/11/04 04:34:04;;;;;;;6.35;3.20;;;;;;;;;;5159646;27;20039;-69
2022/11/04 04:36:33;;;;;;;4.10;2.85;;;;;;;;;;5150233;27;20051;-68
2022/11/04 04:47:19;;;;;;;8.32;5.25;;;;;;;;;;5162823;27;20512;-68
2022/11/04 04:49:53;;;;;;;11.88;7.28;;;;;;;;;;5152793;27;20051;-68
2022/11/04 04:52:21;;;;;;;12.85;7.75;;;;;;;;;;5143895;27;20058;-68
2022/11/04 04:54:47;;;;;;;16.30;9.32;;;;;;;;;;5126079;27;20054;-67
2022/11/04 04:57:14;;;;;;;19.23;10.77;;;;;;;;;;5144668;27;20058;-69
2022/11/04 04:59:41;;;;;;;20.73;11.38;;;;;;;;;;5158815;27;20053;-68
2022/11/04 05:02:07;;;;;;;20.08;10.90;;;;;;;;;;5159671;27;20055;-67
2022/11/04 05:04:34;;;;;;;25.55;11.95;;;;;;;;;;5157298;27;20057;-68
2022/11/04 05:07:00;;;;;;;18.17;10.65;;;;;;;;;;5148895;27;20343;-67
2022/11/04 05:09:27;;;;;;;23.13;11.70;;;;;;;;;;5146885;27;20051;-67
2022/11/04 05:11:53;;;;;;;22.48;12.18;;;;;;;;;;5152615;27;20055;-67
2022/11/04 05:14:19;;;;;;;20.20;10.80;;;;;;;;;;5142812;27;20084;-67
2022/11/04 05:16:46;;;;;;;23.58;12.10;;;;;;;;;;5165451;27;20492;-67
2022/11/04 05:19:12;;;;;;;17.85;10.70;;;;;;;;;;5163039;27;20071;-67
2022/11/04 05:21:38;;;;;;;16.15;10.57;;;;;;;;;;5162010;27;20051;-66
2022/11/04 05:24:05;;;;;;;17.35;11.20;;;;;;;;;;5155061;27;20058;-68
2022/11/04 05:26:31;;;;;;;20.17;11.95;;;;;;;;;;5151340;27;20145;-66
2022/11/04 05:28:57;;;;;;;22.48;11.52;;;;;;;;;;5168898;27;20806;-67
2022/11/04 05:31:24;;;;;;;20.95;11.45;;;;;;;;;;5154075;27;20116;-67
2022/11/04 05:33:50;;;;;;;19.52;11.38;;;;;;;;;;5156357;27;20066;-67
2022/11/04 05:36:16;;;;;;;16.70;10.77;;;;;;;;;;5163699;27;20057;-67
2022/11/04 05:38:43;;;;;;;21.77;11.27;;;;;;;;;;5154394;27;20845;-68
2022/11/04 05:41:10;;;;;;;16.88;10.75;;;;;;;;;;5159284;27;20043;-67
2022/11/04 05:43:36;;;;;;;16.38;10.75;;;;;;;;;;5159342;27;20104;-67
2022/11/04 05:46:03;;;;;;;17.25;10.57;;;;;;;;;;5160208;27;20051;-68
2022/11/04 05:48:29;;;;;;;22.15;11.48;;;;;;;;;;5181006;27;20054;-67
2022/11/04 05:50:55;;;;;;;20.35;11.35;;;;;;;;;;5161200;27;20055;-67
2022/11/04 05:53:23;;;;;;;19.20;11.65;;;;;;;;;;5147400;27;21167;-68
2022/11/04 05:55:50;;;;;;;16.58;9.85;;;;;;;;;;5150409;27;20039;-67
2022/11/04 05:58:16;;;;;;;20.38;11.55;;;;;;;;;;5158708;27;20055;-67
2022/11/04 06:00:42;;;;;;;22.10;12.50;;;;;;;;;;5164652;27;20806;-68
2022/11/04 06:03:09;;;;;;;18.55;10.68;;;;;;;;;;5161651;27;20543;-68
2022/11/04 06:05:41;;;;;;;20.10;12.00;;;;;;;;;;5151801;27;20081;-68
2022/11/04 06:08:07;;;;;;;17.90;11.13;;;;;;;;;;5156565;27;20557;-66
2022/11/04 06:10:34;;;;;;;22.05;11.40;;;;;;;;;;5162616;27;20521;-69
2022/11/04 06:13:00;;;;;;;18.63;11.70;;;;;;;;;;5155790;27;20054;-66
2022/11/04 06:15:27;;;;;;;18.50;10.93;;;;;;;;;;5158977;27;20086;-67
2022/11/04 06:17:53;;;;;;;20.52;11.85;;;;;;;;;;5146018;27;20055;-67
2022/11/04 06:20:20;;;;;;;21.80;12.18;;;;;;;;;;5162138;27;20042;-68
2022/11/04 06:22:46;;;;;;;21.63;12.77;;;;;;;;;;5165151;27;20125;-68
2022/11/04 06:25:12;;;;;;;22.55;12.32;;;;;;;;;;5163291;27;20804;-68
2022/11/04 06:27:39;;;;;;;21.92;12.20;;;;;;;;;;5161952;27;20055;-68
2022/11/04 06:30:05;;;;;;;19.35;12.45;;;;;;;;;;5146340;27;20054;-66
2022/11/04 06:32:32;;;;;;;17.42;11.98;;;;;;;;;;5150303;27;20062;-67
2022/11/04 06:34:58;;;;;;;16.25;12.20;;;;;;;;;;5158598;27;20554;-66
2022/11/04 06:37:24;;;;;;;24.40;12.35;;;;;;;;;;5162742;27;20651;-66
2022/11/04 06:39:51;;;;;;;20.52;11.55;;;;;;;;;;5150555;27;20047;-67
2022/11/04 06:42:17;;;;;;;20.58;11.45;;;;;;;;;;5157326;27;20050;-67
2022/11/04 06:44:44;;;;;;;22.70;11.45;;;;;;;;;;5158946;27;20543;-68
2022/11/04 06:47:10;;;;;;;21.25;12.38;;;;;;;;;;5166111;27;20074;-68
2022/11/04 06:49:36;;;;;;;19.70;12.02;;;;;;;;;;5156651;27;20062;-68
2022/11/04 06:52:03;;;;;;;17.95;11.63;;;;;;;;;;5150152;27;20038;-68
2022/11/04 06:54:29;;;;;;;18.63;10.98;;;;;;;;;;5166685;27;20107;-68
2022/11/04 06:56:55;;;;;;;20.83;10.95;;;;;;;;;;5167175;27;20103;-68
2022/11/04 06:59:22;;;;;;;16.15;10.95;;;;;;;;;;5148463;27;20619;-68
2022/11/04 07:01:50;;;;;;;17.75;10.48;;;;;;;;;;5155349;27;20066;-68
2022/11/04 07:04:18;;;;;;;24.23;11.75;;;;;;;;;;5159138;27;20130;-69
2022/11/04 07:06:44;;;;;;;18.48;11.15;;;;;;;;;;5147248;27;20615;-67
2022/11/04 07:09:12;;;;;;;18.80;11.07;;;;;;;;;;5155493;27;20769;-69
2022/11/04 07:11:38;;;;;;;16.55;9.55;;;;;;;;;;5161262;27;20054;-67
2022/11/04 07:14:05;;;;;;;15.55;9.75;;;;;;;;;;5148433;27;20051;-68
2022/11/04 07:16:31;;;;;;;15.57;9.25;;;;;;;;;;5154861;27;20481;-67
2022/11/04 07:18:57;;;;;;;17.58;9.70;;;;;;;;;;5159438;27;20050;-67
2022/11/04 07:21:24;;;;;;;14.30;9.38;;;;;;;;;;5156487;27;20055;-68
2022/11/04 07:23:51;;;;;;;14.98;8.80;;;;;;;;;;5150250;27;20495;-68
2022/11/04 07:26:17;;;;;;;15.77;9.40;;;;;;;;;;5157543;27;20063;-67
2022/11/04 07:28:44;;;;;;;14.65;8.30;;;;;;;;;;5166624;27;20493;-68
2022/11/04 07:31:11;;;;;;;15.43;8.52;;;;;;;;;;5157988;27;20055;-68
2022/11/04 07:33:38;;;;;;;15.80;8.82;;;;;;;;;;5151992;27;20081;-69
2022/11/04 07:36:05;;;;;;;15.30;8.75;;;;;;;;;;5165151;27;20058;-68
2022/11/04 07:38:32;;;;;;;15.77;8.13;;;;;;;;;;5165227;27;20058;-69
2022/11/04 07:40:58;;;;;;;11.07;7.13;;;;;;;;;;5145516;27;20051;-68
2022/11/04 07:43:24;;;;;;;15.23;7.28;;;;;;;;;;5144252;27;20528;-68
2022/11/04 07:46:01;;;;;;;15.27;7.90;;;;;;;;;;5144794;27;20063;-69
2022/11/04 07:48:28;;;;;;;16.52;8.13;;;;;;;;;;5144678;27;20142;-68
2022/11/04 07:50:55;;;;;;;14.02;7.00;;;;;;;;;;5157616;27;20978;-67
2022/11/04 07:53:22;;;;;;;28.63;18.27;;;;;;;;;;5164920;27;20054;-67
2022/11/04 07:55:49;;;;;;;11.98;8.50;;;;;;;;;;5164896;27;20047;-67
2022/11/04 07:58:20;;;;;;;14.20;8.30;;;;;;;;;;5166735;27;20074;-67
2022/11/04 08:00:46;;;;;;;13.32;7.95;;;;;;;;;;5155831;27;20047;-67
2022/11/04 08:03:13;;;;;;;15.50;8.00;;;;;;;;;;5159023;27;20054;-69
2022/11/04 08:05:39;;;;;;;15.05;8.02;;;;;;;;;;5164927;27;20607;-67
2022/11/04 08:08:06;;;;;;;17.05;8.13;;;;;;;;;;5169915;27;20098;-68
2022/11/04 08:10:33;;;;;;;19.45;8.50;;;;;;;;;;5168173;27;20057;-68
2022/11/04 08:12:59;;;;;;;18.95;7.78;;;;;;;;;;5151357;27;20063;-69
2022/11/04 08:15:25;;;;;;;15.02;8.35;;;;;;;;;;5160584;27;20058;-68
2022/11/04 08:17:52;;;;;;;16.48;8.77;;;;;;;;;;5161508;27;20080;-68
2022/11/04 08:20:18;;;;;;;15.60;8.52;;;;;;;;;;5152594;27;20058;-68
2022/11/04 08:22:45;;;;;;;14.40;7.75;;;;;;;;;;5165266;27;20058;-68
2022/11/04 08:25:12;;;;;;;14.48;7.57;;;;;;;;;;5154100;27;20050;-68
2022/11/04 08:27:39;;;;;;;15.10;8.27;;;;;;;;;;5158656;27;20084;-67
2022/11/04 08:30:05;;;;;;;15.82;9.27;;;;;;;;;;5163359;27;20503;-67
2022/11/04 08:32:31;;;;;;;13.13;7.93;;;;;;;;;;5162111;27;20155;-67
2022/11/04 08:34:58;;;;;;;14.98;8.18;;;;;;;;;;5162131;27;20046;-68
2022/11/04 08:37:24;;;;;;;11.07;7.93;;;;;;;;;;5156589;27;20047;-66
2022/11/04 08:39:50;;;;;;;30.58;8.18;;;;;;;;;;5158753;27;20531;-68
2022/11/04 08:42:17;;;;;;;14.85;7.65;;;;;;;;;;5154178;27;20055;-67
2022/11/04 08:44:43;;;;;;;14.98;7.13;;;;;;;;;;5143272;27;20059;-67
2022/11/04 08:47:10;;;;;;;17.83;8.52;;;;;;;;;;5148226;27;20050;-66
2022/11/04 08:49:37;;;;;;;16.15;7.00;;;;;;;;;;5151404;27;20519;-67
2022/11/04 08:52:03;;;;;;;13.00;7.45;;;;;;;;;;5151698;27;20520;-67
2022/11/04 08:54:30;;;;;;;16.95;8.20;;;;;;;;;;5164114;27;20054;-67
2022/11/04 08:56:57;;;;;;;16.02;7.22;;;;;;;;;;5165016;27;20538;-69
2022/11/04 08:59:24;;;;;;;15.05;7.93;;;;;;;;;;5164094;27;20047;-68
2022/11/04 09:01:50;;;;;;;16.27;8.35;;;;;;;;;;5149951;27;20512;-66
2022/11/04 09:04:18;;;;;;;12.93;7.65;;;;;;;;;;5153953;27;20058;-67
2022/11/04 09:06:45;;;;;;;12.52;7.70;;;;;;;;;;5163307;27;20051;-67
2022/11/04 09:09:13;;;;;;;10.23;7.40;;;;;;;;;;5164827;27;20058;-68
2022/11/04 09:11:40;;;;;;;18.95;7.40;;;;;;;;;;5164169;27;20039;-69
2022/11/04 09:14:07;;;;;;;19.33;8.55;;;;;;;;;;5159927;27;20054;-68
2022/11/04 09:16:34;;;;;;;14.40;8.15;;;;;;;;;;5165069;27;20065;-67
2022/11/04 09:19:01;;;;;;;20.38;8.73;;;;;;;;;;5146185;27;20535;-67
2022/11/04 09:21:27;;;;;;;12.70;8.07;;;;;;;;;;5148252;27;20497;-69
2022/11/04 09:23:53;;;;;;;17.60;9.07;;;;;;;;;;5164783;27;20466;-68
2022/11/04 09:26:21;;;;;;;24.15;10.07;;;;;;;;;;5140766;27;20440;-68
2022/11/04 09:28:51;;;;;;;18.55;10.65;;;;;;;;;;5162537;27;20451;-68
2022/11/04 09:31:18;;;;;;;18.17;10.80;;;;;;;;;;5163646;27;20531;-68
2022/11/04 09:33:44;;;;;;;17.48;9.32;;;;;;;;;;5159288;27;20047;-67
2022/11/04 09:36:11;;;;;;;15.68;10.07;;;;;;;;;;5161105;27;20517;-68
2022/11/04 09:38:38;;;;;;;20.45;11.15;;;;;;;;;;5169244;27;20158;-68
2022/11/04 09:41:10;;;;;;;21.58;12.65;;;;;;;;;;5164468;27;20160;-67
2022/11/04 09:43:42;;;;;;;20.70;12.90;;;;;;;;;;5163745;27;20058;-68
2022/11/04 09:46:10;;;;;;;17.77;11.25;;;;;;;;;;5164487;27;20054;-68
2022/11/04 09:48:40;;;;;;;21.27;12.73;;;;;;;;;;5154379;27;20444;-67
2022/11/04 09:51:07;;;;;;;15.88;10.85;;;;;;;;;;5156041;27;20050;-67
2022/11/04 09:54:02;;;;;;;16.65;10.98;;;;;;;;;;5148039;27;20204;-67
2022/11/04 09:56:33;;;;;;;19.88;11.35;;;;;;;;;;5160117;27;20047;-67
2022/11/04 09:59:02;;;;;;;17.63;11.68;;;;;;;;;;5161554;27;20047;-67
2022/11/04 10:01:41;;;;;;;18.20;11.35;;;;;;;;;;5164380;27;20054;-67
2022/11/04 10:04:14;;;;;;;14.07;11.73;;;;;;;;;;5158687;27;20059;-67
2022/11/04 10:06:50;;;;;;;24.85;12.27;;;;;;;;;;5143542;27;20054;-67
2022/11/04 10:09:40;;;;;;;22.65;11.77;;;;;;;;;;5156447;27;20512;-67
2022/11/04 10:12:20;;;;;;;18.25;12.15;;;;;;;;;;5140282;27;20535;-67
2022/11/04 10:15:05;;;;;;;18.65;11.27;;;;;;;;;;5163733;27;20524;-68
2022/11/04 10:17:41;;;;;;;15.17;12.07;;;;;;;;;;5163560;27;20568;-69
2022/11/04 10:20:18;;;;;;;16.40;11.98;;;;;;;;;;5157869;27;20078;-67
2022/11/04 10:23:03;;;;;;;22.33;12.93;;;;;;;;;;5168218;27;20051;-67
2022/11/04 10:25:37;;;;;;;20.52;12.30;;;;;;;;;;5167188;27;20496;-68
2022/11/04 10:28:04;;;;;;;20.98;12.30;;;;;;;;;;5148643;27;20055;-67
2022/11/04 10:30:30;;;;;;;21.73;12.65;;;;;;;;;;5149494;27;20538;-67
2022/11/04 10:33:03;;;;;;;20.38;12.88;;;;;;;;;;5146703;27;20051;-66
2022/11/04 10:35:29;;;;;;;17.63;13.32;;;;;;;;;;5164720;27;20065;-67
2022/11/04 10:37:57;;;;;;;24.67;13.15;;;;;;;;;;5167127;27;20055;-67
2022/11/04 10:40:27;;;;;;;23.67;13.80;;;;;;;;;;5166639;27;20057;-68
2022/11/04 10:42:55;;;;;;;23.35;13.98;;;;;;;;;;5166933;27;20057;-68
2022/11/04 10:45:25;;;;;;;21.05;12.63;;;;;;;;;;5167573;27;20546;-69
2022/11/04 10:48:07;;;;;;;18.27;13.57;;;;;;;;;;5161196;27;21049;-67
2022/11/04 10:50:38;;;;;;;18.27;12.93;;;;;;;;;;5147828;27;20587;-69
2022/11/04 10:53:17;;;;;;;17.95;13.13;;;;;;;;;;5166175;27;20047;-68
2022/11/04 10:55:58;;;;;;;20.95;12.43;;;;;;;;;;5167597;27;20050;-68
2022/11/04 10:58:26;;;;;;;21.27;11.65;;;;;;;;;;5166512;27;20059;-68
2022/11/04 11:00:53;;;;;;;25.85;12.18;;;;;;;;;;5159802;27;20052;-69
2022/11/04 11:03:24;;;;;;;15.52;10.63;;;;;;;;;;5164726;27;20062;-67
2022/11/04 11:05:51;;;;;;;19.40;12.05;;;;;;;;;;5164688;27;20054;-67
2022/11/04 11:08:32;;;;;;;15.05;10.57;;;;;;;;;;5142914;27;20035;-67
2022/11/04 11:10:59;;;;;;;18.48;11.27;;;;;;;;;;5165299;27;20633;-67
2022/11/04 11:13:26;;;;;;;15.32;11.00;;;;;;;;;;5167053;27;20047;-68
2022/11/04 11:16:06;;;;;;;16.15;11.45;;;;;;;;;;5166862;27;20142;-67
2022/11/04 11:18:33;;;;;;;19.77;11.07;;;;;;;;;;5164475;27;20519;-67
2022/11/04 11:21:03;;;;;;;15.68;9.80;;;;;;;;;;5153873;27;20055;-69
2022/11/04 11:23:33;;;;;;;16.17;9.93;;;;;;;;;;5163394;27;20054;-68
2022/11/04 11:26:00;;;;;;;18.33;10.02;;;;;;;;;;5161416;27;20053;-67
2022/11/04 11:28:26;;;;;;;14.50;9.70;;;;;;;;;;5170758;27;20054;-68
2022/11/04 11:31:00;;;;;;;15.52;10.00;;;;;;;;;;5167192;27;20051;-68
2022/11/04 11:33:30;;;;;;;16.50;9.77;;;;;;;;;;5146661;27;20050;-68
2022/11/04 11:36:17;;;;;;;17.17;10.45;;;;;;;;;;5166343;27;20099;-68
2022/11/04 11:38:52;;;;;;;12.45;9.15;;;;;;;;;;5145277;27;20065;-67
2022/11/04 11:41:22;;;;;;;22.30;9.48;;;;;;;;;;5164876;27;20111;-68
2022/11/04 11:43:52;;;;;;;12.70;8.27;;;;;;;;;;5157414;27;20062;-68
2022/11/04 11:46:23;;;;;;;10.30;7.93;;;;;;;;;;5152211;27;20051;-67
2022/11/04 11:48:50;;;;;;;12.95;8.52;;;;;;;;;;5165676;27;20039;-69
2022/11/04 11:51:24;;;;;;;15.20;8.65;;;;;;;;;;5145208;27;20087;-68
2022/11/04 11:54:18;;;;;;;14.32;8.27;;;;;;;;;;5156399;27;20141;-67
2022/11/04 11:56:49;;;;;;;13.05;9.55;;;;;;;;;;5166091;27;20492;-67
2022/11/04 11:59:39;;;;;;;13.10;7.32;;;;;;;;;;5161804;27;20055;-67
2022/11/04 12:02:44;;;;;;;11.27;6.95;;;;;;;;;;5164959;27;20595;-67
2022/11/04 12:05:12;;;;;;;10.35;5.80;;;;;;;;;;5160304;27;20158;-67
2022/11/04 12:08:17;;;;;;;8.50;5.88;;;;;;;;;;5153277;27;20143;-66
2022/11/04 12:11:13;;;;;;;12.05;5.97;;;;;;;;;;5158025;27;20047;-66
2022/11/04 12:13:54;;;;;;;28.67;7.43;;;;;;;;;;5162797;27;20051;-66
2022/11/04 12:16:42;;;;;;;9.45;5.13;;;;;;;;;;5157399;27;20083;-68
2022/11/04 12:19:16;;;;;;;11.10;4.80;;;;;;;;;;5161410;27;20553;-67
2022/11/04 12:22:00;;;;;;;7.88;4.80;;;;;;;;;;5156086;27;20057;-67
2022/11/04 12:24:46;;;;;;;8.55;4.93;;;;;;;;;;5151320;27;20054;-65
2022/11/04 12:27:12;;;;;;;7.90;4.82;;;;;;;;;;5156980;27;21093;-66
2022/11/04 12:29:51;;;;;;;6.55;4.38;;;;;;;;;;5149898;27;20050;-67
2022/11/04 12:32:26;;;;;;;11.02;4.63;;;;;;;;;;5154816;27;20051;-68
2022/11/04 12:34:59;;;;;;;9.73;4.90;;;;;;;;;;5165301;27;20134;-66
2022/11/04 12:37:44;;;;;;;7.38;4.50;;;;;;;;;;5165594;27;20047;-68
2022/11/04 12:40:13;;;;;;;7.95;4.32;;;;;;;;;;5165736;27;20138;-67
2022/11/04 12:42:49;;;;;;;7.45;4.47;;;;;;;;;;5164456;27;20059;-66
2022/11/04 12:45:15;;;;;;;;;;;;;;;;;;5164235;27;20051;-67
2022/11/04 12:47:45;;;;;;;11.52;4.63;;;;;;;;;;5148475;27;43600;-67
2022/11/04 12:50:24;;;;;;;13.63;4.80;;;;;;;;;;5164203;27;20054;-67
2022/11/04 12:53:14;;;;;;;10.85;4.28;;;;;;;;;;5142728;27;20051;-66
2022/11/04 12:55:41;;;;;;;6.63;4.35;;;;;;;;;;5155293;27;20047;-66
2022/11/04 12:58:24;;;;;;;9.18;4.25;;;;;;;;;;5157722;27;20051;-69
2022/11/04 13:00:57;;;;;;;8.10;4.18;;;;;;;;;;5165142;27;20065;-65
2022/11/04 13:03:31;;;;;;;7.78;3.80;;;;;;;;;;5162729;27;20064;-66
2022/11/04 13:06:17;;;;;;;5.93;3.42;;;;;;;;;;5146525;27;20047;-67
2022/11/04 13:08:49;;;;;;;8.02;4.03;;;;;;;;;;5161261;27;20443;-66
2022/11/04 13:11:21;;;;;;;8.27;4.07;;;;;;;;;;5151120;27;20054;-66
2022/11/04 13:14:06;;;;;;;7.97;4.15;;;;;;;;;;5156261;27;20047;-67
2022/11/04 13:16:34;;;;;;;6.65;3.75;;;;;;;;;;5156534;27;20043;-67
2022/11/04 13:19:00;;;;;;;6.38;4.60;;;;;;;;;;5159084;27;20496;-67
2022/11/04 13:21:31;;;;;;;10.88;4.47;;;;;;;;;;5125746;27;20580;-67
2022/11/04 13:24:03;;;;;;;7.18;4.57;;;;;;;;;;5145845;27;20554;-68
2022/11/04 13:26:29;;;;;;;7.93;3.42;;;;;;;;;;5143673;27;20062;-67
2022/11/04 13:29:03;;;;;;;3.25;1.60;;;;;;;;;;5144514;27;20055;-66
2022/11/04 13:31:43;;;;;;;7.28;1.52;;;;;;;;;;5163736;27;20051;-65
2022/11/04 13:34:10;;;;;;;4.57;1.20;;;;;;;;;;5159441;27;20043;-65
2022/11/04 13:37:08;;;;;;;2.38;0.90;;;;;;;;;;5166033;27;20046;-66
2022/11/04 13:39:38;;;;;;;1.98;0.63;;;;;;;;;;5047214;28;20749;-65
2022/11/04 13:42:20;;;;;;;2.17;0.90;;;;;;;;;;5049878;28;20052;-65
2022/11/04 13:44:51;;;;;;;1.90;0.80;;;;;;;;;;5052106;28;20108;-65
2022/11/04 13:47:20;;;;;;;1.00;0.50;;;;;;;;;;5042399;28;20057;-66
2022/11/04 13:49:48;;;;;;;2.83;1.30;;;;;;;;;;5057465;28;20459;-66
2022/11/04 13:52:15;;;;;;;2.20;0.70;;;;;;;;;;5060014;28;20056;-66
2022/11/04 13:54:41;;;;;;;1.95;0.60;;;;;;;;;;5058129;28;20173;-67
2022/11/04 13:57:09;;;;;;;1.75;0.60;;;;;;;;;;5059264;28;20057;-67
2022/11/04 13:59:36;;;;;;;2.63;0.82;;;;;;;;;;5061028;28;20064;-66
2022/11/04 14:02:18;;;;;;;2.55;1.33;;;;;;;;;;5055861;28;20051;-65
2022/11/04 14:04:45;;;;;;;1.15;0.47;;;;;;;;;;5056130;28;20148;-67
2022/11/04 14:07:16;;;;;;;3.83;0.75;;;;;;;;;;5047978;28;20083;-68
2022/11/04 14:09:43;;;;;;;1.75;0.70;;;;;;;;;;5057713;28;20514;-66
2022/11/04 14:12:09;;;;;;;1.23;0.55;;;;;;;;;;5059169;28;20056;-66
2022/11/04 14:14:36;;;;;;;2.47;0.60;;;;;;;;;;5082558;27;20053;-67
2022/11/04 14:17:06;;;;;;;3.65;0.98;;;;;;;;;;5167410;27;20050;-67
2022/11/04 14:19:45;;;;;;;1.65;0.40;;;;;;;;;;5161157;27;20198;-65
2022/11/04 14:22:14;;;;;;;0.70;0.52;;;;;;;;;;5156738;27;20459;-67
2022/11/04 14:24:40;;;;;;;3.05;0.60;;;;;;;;;;5166045;27;20047;-66
2022/11/04 14:27:21;;;;;;;2.67;0.60;;;;;;;;;;5166082;27;20054;-65
2022/11/04 14:29:49;;;;;;;1.73;0.70;;;;;;;;;;5156347;27;20054;-66
2022/11/04 14:32:22;;;;;;;1.38;0.38;;;;;;;;;;5154379;27;20164;-66
2022/11/04 14:34:55;;;;;;;0.88;0.40;;;;;;;;;;5151799;27;20051;-68
2022/11/04 14:37:25;;;;;;;3.50;0.63;;;;;;;;;;5137410;27;20711;-65
2022/11/04 14:39:56;;;;;;;0.50;0.50;;;;;;;;;;5168508;27;20046;-66
2022/11/04 14:42:41;;;;;;;2.47;0.68;;;;;;;;;;5164063;27;20524;-67
2022/11/04 14:45:11;;;;;;;1.20;0.70;;;;;;;;;;5160935;27;20946;-66
2022/11/04 14:47:38;;;;;;;0.70;0.65;;;;;;;;;;5167241;27;20500;-65
2022/11/04 14:50:07;;;;;;;3.20;0.75;;;;;;;;;;5155918;27;20043;-65
2022/11/04 14:52:43;;;;;;;3.83;1.25;;;;;;;;;;5154662;27;20058;-66
2022/11/04 14:55:10;;;;;;;0.55;0.52;;;;;;;;;;5155674;27;20062;-65
2022/11/04 14:57:37;;;;;;;3.05;1.08;;;;;;;;;;5155431;27;20042;-65
2022/11/04 15:00:25;;;;;;;4.75;0.70;;;;;;;;;;5160234;27;20101;-66
2022/11/04 15:03:01;;;;;;;5.57;0.70;;;;;;;;;;5146827;27;20051;-65
2022/11/04 15:05:28;;;;;;;2.17;1.02;;;;;;;;;;5146764;27;20108;-66
2022/11/04 15:07:54;;;;;;;3.53;0.70;;;;;;;;;;5152787;27;20046;-65
2022/11/04 15:10:23;;;;;;;1.60;0.60;;;;;;;;;;5151175;27;20105;-66
2022/11/04 15:12:50;;;;;;;2.35;0.93;;;;;;;;;;5167842;27;20519;-64
2022/11/04 15:15:35;;;;;;;4.80;1.00;;;;;;;;;;5153929;27;20437;-65
2022/11/04 15:18:06;;;;;;;2.20;0.68;;;;;;;;;;5135357;27;20060;-65
2022/11/04 15:20:35;;;;;;;3.72;0.82;;;;;;;;;;5150900;27;20055;-65
2022/11/04 15:23:02;;;;;;;3.22;0.90;;;;;;;;;;5146408;27;20044;-66